Terminal Aerodrome Forecast
Issued by NWS Pueblo, CO

Home | Current Version | Previous Version | Text Only | Print | Product List | Glossary On
Versions: 1 2 3 4 5 6 7 8 9 10 11 12 13 14 15 16 17 18 19 20 21 22 23 24 25 26 27 28 29 30 31 32 33 34 35 36 37
066
FTUS45 KPUB 040525
TAFCOS
TAF
KCOS 040525Z 0406/0506 35007KT P6SM FEW100
     FM041800 16009KT P6SM FEW100 SCT200
     FM050100 01007KT P6SM SCT200=

USA.gov is the U.S. government's official web portal to all federal, state and local government web resources and services.